الصفحة الرئيسية
METAR-TAF:

METAR-TAF

مطار :

Uherské Hradiště, التشيك

دائرة عرض: 49-01-46N, خط طول: 017-26-23E, ارتفاع: 177 متر

مراقبة الطقس الحالي

تاريخ ووقت الإصدار 5ساعات و 48 دقيقة قبل الساعة 12:00UTC
ريح 4 عقدة من الغرب, الاتجاه يتراوح بين الجنوب الغربي و الغرب/الشمال الغربي
درجة الحرارة 27°درجة مئوية
الرطوبة 58%
ضغط 1011 hPa
الرؤية 10 كم أو أكثر
غيوم متفرقة على ارتفاع 3400 قدم

METAR: LKKU 021200Z 27004KT 230V300 9999 SCT034 27/18 Q1011

زمن: 19:48 (17:48 UTC)


TAF: مفقودة

أرصاد الطقس والتوقعات من أكثر من 4000 مطار (تقارير الطقس للمطار METAR والتنبؤ بالطقس بالمطارTAF).

المحطات المتاحة هي النقط الصفراء والحمراء على الخريطة.

حرك المؤشر فوق النقطة لمعرفة اسم المحطة.

ثم انقر لمعرفة أرصاد وتوقعات الطقس.

لتغيير الخارطة: اضغط على الأزرار الخضراء مع رمز الصليب الأسود للتكبير. على الزر الأخضر مع شرطة للتصغير، أو على الأسهم الخضراء للخرائط المجاورة.


METAR-TAF: